Time;durP1;ratioP1;P1;durP2;ratioP2;P2;SDS_P1;SDS_P2;PMS_P1;PMS_P2;Temp;Humidity;BMP_temperature;BMP_pressure;BME280_temperature;BME280_humidity;BME280_pressure;Samples;Min_cycle;Max_cycle;Signal;HPM_P1;HPM_P2
2022/04/13 00:00:44;;;;;;;7.20;5.17;;;;;;;13.88;40.07;97758.59;8346653;28;20228;-67
2022/04/13 00:04:47;;;;;;;7.47;4.90;;;;;;;13.95;39.87;97753.00;8346634;28;20234;-68
2022/04/13 00:08:50;;;;;;;6.73;4.80;;;;;;;13.87;39.26;97748.28;8346522;28;20555;-68
2022/04/13 00:12:53;;;;;;;6.07;4.33;;;;;;;13.83;39.36;97746.78;8346673;28;20228;-67
2022/04/13 00:17:01;;;;;;;7.23;4.60;;;;;;;13.88;39.40;97744.75;8350267;28;20235;-67
2022/04/13 00:21:04;;;;;;;8.07;4.33;;;;;;;13.94;39.59;97748.75;8352638;28;20254;-67
2022/04/13 00:25:07;;;;;;;8.97;4.57;;;;;;;13.86;38.95;97741.41;8352106;28;20235;-67
2022/04/13 00:29:10;;;;;;;6.03;4.13;;;;;;;13.85;39.23;97742.31;8355659;28;20230;-67
2022/04/13 00:33:15;;;;;;;7.87;4.30;;;;;;;13.84;38.52;97736.28;8385000;28;20232;-67
2022/04/13 00:37:18;;;;;;;6.40;4.13;;;;;;;13.88;39.34;97742.16;8384848;28;20239;-67
2022/04/13 00:41:21;;;;;;;5.53;4.27;;;;;;;13.85;39.05;97743.16;8384953;28;20231;-67
2022/04/13 00:45:24;;;;;;;5.53;4.07;;;;;;;13.71;39.37;97739.72;8384776;28;20254;-65
2022/04/13 00:49:29;;;;;;;6.27;3.87;;;;;;;13.75;38.93;97747.25;8384444;28;20239;-65
2022/04/13 00:53:32;;;;;;;6.53;4.20;;;;;;;13.67;38.71;97742.53;8384259;28;20228;-66
2022/04/13 00:57:37;;;;;;;6.83;4.03;;;;;;;13.82;40.23;97751.16;8384311;28;20239;-65
2022/04/13 01:01:42;;;;;;;8.68;4.38;;;;;;;14.12;38.76;97751.97;8381768;28;20401;-66
2022/04/13 01:05:48;;;;;;;8.10;4.03;;;;;;;13.72;39.38;97746.59;8350901;28;20260;-69
2022/04/13 01:09:52;;;;;;;7.10;4.10;;;;;;;13.77;39.44;97757.56;8351206;28;20557;-68
2022/04/13 01:13:56;;;;;;;9.60;4.10;;;;;;;13.56;39.80;97747.53;8351015;28;20240;-69
2022/04/13 01:17:58;;;;;;;7.47;3.90;;;;;;;13.57;39.38;97751.78;8350951;28;20697;-69
2022/04/13 01:22:16;;;;;;;6.37;4.00;;;;;;;13.74;39.20;97758.59;8350984;28;20246;-68
2022/04/13 01:26:19;;;;;;;7.70;4.00;;;;;;;13.70;39.57;97764.91;8350044;28;20259;-69
2022/04/13 01:30:23;;;;;;;4.97;3.90;;;;;;;13.80;38.69;97768.66;8350026;28;20231;-68
2022/04/13 01:34:26;;;;;;;4.70;3.60;;;;;;;13.68;38.92;97756.34;8350224;28;20239;-68
2022/04/13 01:38:32;;;;;;;8.13;4.10;;;;;;;13.57;39.68;97751.78;8350414;28;20240;-69
2022/04/13 01:42:34;;;;;;;9.10;4.03;;;;;;;13.57;40.08;97749.19;8350325;28;20242;-68
2022/04/13 01:46:37;;;;;;;5.70;4.17;;;;;;;13.43;39.25;97744.81;8352356;28;20235;-68
2022/04/13 01:50:40;;;;;;;6.10;4.37;;;;;;;13.51;40.36;97751.34;8351733;28;20275;-68
2022/04/13 01:54:45;;;;;;;5.93;3.93;;;;;;;13.39;39.58;97751.13;8351923;28;20252;-69
2022/04/13 01:58:48;;;;;;;5.60;3.80;;;;;;;13.49;40.08;97751.41;8351557;28;20214;-68
2022/04/13 02:02:52;;;;;;;6.43;3.90;;;;;;;13.44;39.82;97754.31;8351196;28;20200;-69
2022/04/13 02:06:55;;;;;;;9.30;3.90;;;;;;;13.37;39.99;97757.34;8350408;28;20239;-69
2022/04/13 02:11:00;;;;;;;5.37;3.80;;;;;;;13.36;40.37;97755.69;8348881;28;20424;-68
2022/04/13 02:15:03;;;;;;;6.00;4.00;;;;;;;13.36;40.50;97753.91;8348947;28;20254;-68
2022/04/13 02:19:07;;;;;;;6.40;3.87;;;;;;;13.33;40.55;97756.69;8348903;28;20235;-69
2022/04/13 02:23:10;;;;;;;6.33;3.80;;;;;;;13.27;40.88;97760.47;8348501;28;20235;-68
2022/04/13 02:27:15;;;;;;;7.00;4.10;;;;;;;13.22;40.67;97756.47;8348231;28;20236;-69
2022/04/13 02:31:18;;;;;;;7.83;3.80;;;;;;;13.18;41.23;97753.19;8348247;28;20238;-68
2022/04/13 02:35:21;;;;;;;5.63;3.83;;;;;;;13.11;41.35;97749.28;8347894;28;20338;-68
2022/04/13 02:39:24;;;;;;;8.07;4.30;;;;;;;13.03;41.66;97754.91;8348067;28;20243;-68
2022/04/13 02:43:29;;;;;;;7.33;3.97;;;;;;;12.91;41.21;97748.66;8347867;28;20232;-68
2022/04/13 02:47:32;;;;;;;7.77;4.17;;;;;;;13.05;41.82;97747.88;8347839;28;20283;-68
2022/04/13 02:51:35;;;;;;;11.00;4.53;;;;;;;13.00;41.38;97752.47;8347916;28;20231;-68
2022/04/13 02:55:38;;;;;;;7.87;4.60;;;;;;;12.96;41.53;97755.34;8346568;28;20242;-68
2022/04/13 02:59:46;;;;;;;6.30;4.47;;;;;;;12.90;41.46;97757.38;8347584;28;20231;-68
2022/04/13 03:03:49;;;;;;;5.20;3.90;;;;;;;12.95;41.98;97759.72;8347668;28;20239;-68
2022/04/13 03:07:52;;;;;;;5.63;4.10;;;;;;;12.85;41.55;97751.63;8347310;28;20433;-68
2022/04/13 03:11:55;;;;;;;8.27;4.10;;;;;;;12.90;42.11;97749.56;8347614;28;20236;-69
2022/04/13 03:15:59;;;;;;;7.73;4.40;;;;;;;12.83;42.20;97750.88;8347315;28;20433;-68
2022/04/13 03:20:02;;;;;;;9.10;4.53;;;;;;;12.82;42.73;97745.75;8355575;28;20558;-68
2022/04/13 03:24:06;;;;;;;7.57;4.27;;;;;;;12.82;42.01;97754.38;8355140;28;20234;-69
2022/04/13 03:28:09;;;;;;;10.00;4.67;;;;;;;12.73;42.67;97761.88;8346081;28;20236;-69
2022/04/13 03:32:14;;;;;;;10.20;5.03;;;;;;;12.68;42.39;97754.34;8346872;28;20232;-68
2022/04/13 03:36:18;;;;;;;8.67;4.87;;;;;;;12.65;43.07;97763.13;8347004;28;20232;-68
2022/04/13 03:40:23;;;;;;;9.27;5.00;;;;;;;12.51;42.80;97750.09;8347102;28;20238;-68
2022/04/13 03:44:26;;;;;;;7.67;5.23;;;;;;;12.50;43.40;97757.03;8346974;28;20435;-68
2022/04/13 03:48:30;;;;;;;9.23;5.10;;;;;;;12.32;42.64;97756.28;8346878;28;20243;-68
2022/04/13 03:52:33;;;;;;;8.67;5.10;;;;;;;12.29;42.92;97753.03;8351322;28;20227;-68
2022/04/13 03:56:36;;;;;;;12.47;4.80;;;;;;;12.35;42.80;97752.69;8352947;28;20247;-68
2022/04/13 04:00:39;;;;;;;6.47;4.47;;;;;;;12.45;43.07;97763.38;8352887;28;20227;-68
2022/04/13 04:04:44;;;;;;;7.40;4.40;;;;;;;12.37;42.84;97761.22;8352834;28;20510;-69
2022/04/13 04:08:49;;;;;;;5.53;4.30;;;;;;;12.40;43.03;97763.66;8352497;28;20262;-68
2022/04/13 04:12:52;;;;;;;6.93;4.37;;;;;;;12.39;42.94;97767.16;8352891;28;20421;-68
2022/04/13 04:16:55;;;;;;;6.67;4.40;;;;;;;12.44;42.71;97770.34;8352642;28;20427;-69
2022/04/13 04:20:59;;;;;;;8.23;3.80;;;;;;;12.39;42.73;97779.31;8352314;28;20232;-69
2022/04/13 04:25:03;;;;;;;5.63;3.80;;;;;;;12.30;43.10;97784.09;8352240;28;20270;-68
2022/04/13 04:29:06;;;;;;;6.90;4.60;;;;;;;12.31;43.11;97780.56;8352214;28;20243;-68
2022/04/13 04:33:09;;;;;;;6.83;4.50;;;;;;;12.17;43.57;97782.25;8351780;28;20338;-69
2022/04/13 04:37:13;;;;;;;8.20;5.53;;;;;;;12.27;43.81;97786.84;8352121;28;20413;-69
2022/04/13 04:41:18;;;;;;;8.60;4.80;;;;;;;12.16;44.06;97788.34;8351913;28;20227;-68
2022/04/13 04:45:21;;;;;;;5.80;5.07;;;;;;;12.01;44.65;97790.84;8351957;28;20240;-68
2022/04/13 04:49:24;;;;;;;9.53;5.47;;;;;;;12.10;44.26;97794.72;8351548;28;20237;-68
2022/04/13 04:53:28;;;;;;;10.50;5.73;;;;;;;12.16;44.44;97794.38;8351437;28;20236;-68
2022/04/13 04:57:31;;;;;;;8.87;6.47;;;;;;;11.89;43.96;97794.06;8351429;28;20235;-69
2022/04/13 05:01:34;;;;;;;11.00;5.90;;;;;;;11.95;43.65;97809.31;8350396;28;20538;-68
2022/04/13 05:05:39;;;;;;;8.97;5.80;;;;;;;12.02;44.61;97815.03;8351129;28;20275;-68
2022/04/13 05:09:44;;;;;;;9.63;6.13;;;;;;;12.09;44.23;97814.66;8350900;28;20534;-69
2022/04/13 05:13:47;;;;;;;8.03;5.60;;;;;;;12.16;44.88;97822.94;8351038;28;20236;-68
2022/04/13 05:17:50;;;;;;;9.00;5.87;;;;;;;12.16;44.62;97830.72;8350918;28;20412;-68
2022/04/13 05:21:53;;;;;;;9.07;5.27;;;;;;;12.13;44.76;97831.72;8351018;28;20232;-68
2022/04/13 05:25:57;;;;;;;10.73;5.10;;;;;;;12.32;44.69;97834.19;8350449;28;20235;-68
2022/04/13 05:30:05;;;;;;;12.13;6.17;;;;;;;12.46;44.14;97840.41;8350585;28;20248;-68
2022/04/13 05:34:08;;;;;;;12.63;6.00;;;;;;;12.55;44.51;97845.09;8350531;28;20239;-69
2022/04/13 05:38:11;;;;;;;8.30;5.80;;;;;;;12.61;44.79;97842.16;8349752;28;20228;-68
2022/04/13 05:42:16;;;;;;;9.50;6.03;;;;;;;12.83;44.13;97844.44;8349788;28;20235;-69
2022/04/13 05:46:21;;;;;;;11.57;6.07;;;;;;;13.27;42.14;97853.25;8349844;28;20232;-68
2022/04/13 05:50:25;;;;;;;9.53;5.90;;;;;;;13.41;41.53;97848.13;8349748;28;20404;-69
2022/04/13 05:54:28;;;;;;;14.63;6.50;;;;;;;13.65;41.20;97855.41;8349391;28;20252;-68
2022/04/13 05:58:32;;;;;;;11.50;6.10;;;;;;;13.85;40.59;97862.88;8349591;28;20243;-69
2022/04/13 06:02:36;;;;;;;10.73;5.07;;;;;;;14.13;39.51;97861.25;8349280;28;20224;-68
2022/04/13 06:06:39;;;;;;;6.30;4.80;;;;;;;14.31;38.70;97855.84;8349376;28;20425;-68
2022/04/13 06:10:42;;;;;;;9.30;4.57;;;;;;;13.95;38.97;97863.16;8349008;28;20240;-68
2022/04/13 06:14:46;;;;;;;8.63;4.50;;;;;;;13.83;39.68;97864.75;8348651;28;20232;-68
2022/04/13 06:18:49;;;;;;;9.40;4.40;;;;;;;13.83;39.44;97864.75;8348564;28;20239;-68
2022/04/13 06:22:53;;;;;;;8.37;4.20;;;;;;;14.25;38.70;97865.69;8348730;28;20228;-68
2022/04/13 06:26:56;;;;;;;9.07;4.43;;;;;;;13.99;38.68;97862.09;8348860;28;20235;-69
2022/04/13 06:31:05;;;;;;;5.67;3.90;;;;;;;13.85;39.33;97864.66;8348647;28;20240;-69
2022/04/13 06:35:11;;;;;;;6.43;4.00;;;;;;;14.22;38.97;97865.03;8348313;28;20231;-68
2022/04/13 06:39:14;;;;;;;8.97;3.60;;;;;;;14.64;37.34;97872.03;8355843;28;20238;-70
2022/04/13 06:43:17;;;;;;;11.20;4.23;;;;;;;14.85;37.62;97889.88;8356499;28;20235;-68
2022/04/13 06:47:21;;;;;;;5.23;3.93;;;;;;;14.90;37.34;97887.78;8357645;28;20251;-68
2022/04/13 06:51:24;;;;;;;6.73;3.83;;;;;;;14.95;37.33;97897.94;8364128;28;20549;-67
2022/04/13 06:55:27;;;;;;;6.20;4.30;;;;;;;16.07;35.98;97890.66;8380345;28;20235;-68
2022/04/13 06:59:30;;;;;;;5.90;3.83;;;;;;;16.34;35.25;97890.53;8380441;28;20227;-69
2022/04/13 07:03:34;;;;;;;12.63;4.20;;;;;;;16.34;34.98;97894.91;8379949;28;20219;-68
2022/04/13 07:07:37;;;;;;;5.97;3.57;;;;;;;16.64;34.64;97891.09;8376928;28;20231;-68
2022/04/13 07:11:40;;;;;;;6.73;4.10;;;;;;;16.94;33.69;97893.34;8377526;28;20223;-67
2022/04/13 07:15:44;;;;;;;6.73;3.97;;;;;;;16.68;33.76;97903.88;8379513;28;20227;-68
2022/04/13 07:19:48;;;;;;;7.07;3.67;;;;;;;17.27;32.80;97897.94;8379670;28;20238;-67
2022/04/13 07:23:51;;;;;;;6.00;3.90;;;;;;;17.26;32.31;97898.06;8379587;28;20227;-67
2022/04/13 07:27:54;;;;;;;13.13;4.83;;;;;;;17.48;32.73;97902.56;8378685;28;20235;-70
2022/04/13 07:31:57;;;;;;;8.90;4.50;;;;;;;17.91;32.46;97897.59;8379704;28;20231;-68
2022/04/13 07:36:01;;;;;;;10.20;4.50;;;;;;;18.09;31.74;97910.28;8376937;28;20223;-68
2022/04/13 07:40:05;;;;;;;8.07;4.30;;;;;;;17.46;33.16;97912.28;8379225;28;20231;-68
2022/04/13 07:44:08;;;;;;;9.67;5.20;;;;;;;18.48;31.91;97916.03;8379265;28;20231;-67
2022/04/13 07:48:11;;;;;;;11.77;5.27;;;;;;;17.93;32.23;97915.81;8379292;28;20238;-67
2022/04/13 07:52:16;;;;;;;8.03;5.93;;;;;;;17.64;31.94;97916.19;8379518;28;20228;-68
2022/04/13 07:56:19;;;;;;;12.37;5.67;;;;;;;17.92;31.62;97922.03;8379434;28;20235;-68
2022/04/13 08:00:22;;;;;;;9.77;5.23;;;;;;;18.47;31.48;97935.34;8379592;28;20346;-67
2022/04/13 08:04:26;;;;;;;8.17;5.60;;;;;;;19.18;30.78;97935.06;8378836;28;20230;-68
2022/04/13 08:08:32;;;;;;;12.33;5.97;;;;;;;18.93;30.85;97929.97;8376209;28;20467;-68
2022/04/13 08:12:36;;;;;;;10.83;6.20;;;;;;;18.84;30.72;97932.50;8375845;28;20227;-68
2022/04/13 08:16:39;;;;;;;11.03;5.70;;;;;;;19.45;30.30;97930.19;8377856;28;20244;-68
2022/04/13 08:20:43;;;;;;;11.27;7.37;;;;;;;18.99;29.77;97935.69;8378558;28;20250;-68
2022/04/13 08:24:48;;;;;;;11.77;6.70;;;;;;;19.46;29.48;97941.56;8378631;28;20309;-68
2022/04/13 08:28:52;;;;;;;11.30;7.00;;;;;;;18.88;30.22;97940.00;8376272;28;20251;-68
2022/04/13 08:32:55;;;;;;;11.03;7.70;;;;;;;18.15;30.53;97938.63;8378315;28;20234;-69
2022/04/13 08:36:58;;;;;;;11.50;7.10;;;;;;;18.67;30.02;97941.66;8381087;28;20231;-68
2022/04/13 08:41:03;;;;;;;13.80;7.53;;;;;;;19.01;29.36;97942.50;8385232;28;20403;-68
2022/04/13 08:45:11;;;;;;;9.47;7.20;;;;;;;19.95;29.14;97944.59;8381519;28;20234;-68
2022/04/13 08:49:15;;;;;;;12.20;7.70;;;;;;;19.65;28.21;97946.16;8383957;28;20242;-69
2022/04/13 08:53:32;;;;;;;16.80;7.67;;;;;;;19.52;30.66;97941.88;8384295;28;20294;-68
2022/04/13 08:57:38;;;;;;;11.53;7.57;;;;;;;20.53;32.01;97938.88;8384143;28;20227;-67
2022/04/13 09:01:46;;;;;;;11.20;7.50;;;;;;;20.15;28.49;97938.50;8382827;28;20250;-60
2022/04/13 09:05:51;;;;;;;12.27;6.17;;;;;;;20.56;30.38;97938.59;8384312;28;20239;-58
2022/04/13 09:09:55;;;;;;;17.87;7.30;;;;;;;20.50;28.14;97947.81;8383877;28;20231;-59
2022/04/13 09:14:01;;;;;;;13.83;6.43;;;;;;;20.85;27.71;97942.22;8383986;28;20239;-59
2022/04/13 09:18:04;;;;;;;11.40;7.17;;;;;;;20.39;27.73;97948.75;8383187;28;20502;-59
2022/04/13 09:22:09;;;;;;;12.33;7.30;;;;;;;19.98;27.75;97944.34;8380574;28;20224;-59
2022/04/13 09:26:13;;;;;;;9.73;6.73;;;;;;;20.56;27.70;97938.59;8382717;28;20233;-58
2022/04/13 09:30:17;;;;;;;15.70;6.90;;;;;;;20.98;27.36;97941.13;8383416;28;20239;-59
2022/04/13 09:34:20;;;;;;;11.93;6.57;;;;;;;21.19;27.76;97938.41;8383058;28;20237;-58
2022/04/13 09:38:23;;;;;;;14.97;9.20;;;;;;;21.75;27.20;97942.25;8383255;28;20237;-57
2022/04/13 09:42:26;;;;;;;9.53;6.93;;;;;;;21.27;27.46;97936.75;8383322;28;20514;-57
2022/04/13 09:46:31;;;;;;;12.53;6.73;;;;;;;20.36;28.25;97930.59;8382972;28;20229;-59
2022/04/13 09:50:34;;;;;;;11.07;6.53;;;;;;;21.11;27.01;97928.53;8382257;28;20234;-59
2022/04/13 09:54:43;;;;;;;9.17;5.90;;;;;;;21.06;27.23;97917.59;8382286;28;20239;-59
2022/04/13 09:58:46;;;;;;;8.83;5.60;;;;;;;21.16;27.24;97913.19;8382549;28;20236;-59
2022/04/13 10:02:51;;;;;;;9.60;6.30;;;;;;;21.76;26.35;97910.47;8382257;28;20419;-59
2022/04/13 10:06:54;;;;;;;10.20;5.37;;;;;;;22.01;25.74;97905.59;8366674;28;20236;-60
2022/04/13 10:10:59;;;;;;;7.80;4.90;;;;;;;21.99;26.06;97897.81;8349122;28;20230;-60
2022/04/13 10:15:10;;;;;;;13.23;4.63;;;;;;;22.48;25.63;97892.41;8376668;28;20301;-59
2022/04/13 10:19:20;;;;;;;6.80;4.30;;;;;;;22.34;25.32;97896.38;8381175;28;20310;-59
2022/04/13 10:23:23;;;;;;;12.33;4.53;;;;;;;22.49;26.11;97883.53;8381502;28;20234;-59
2022/04/13 10:27:27;;;;;;;6.53;4.20;;;;;;;22.43;25.67;97884.94;8381457;28;20228;-60
2022/04/13 10:31:30;;;;;;;6.40;3.87;;;;;;;22.59;25.42;97878.22;8381120;28;20236;-59
2022/04/13 10:35:36;;;;;;;9.87;3.93;;;;;;;22.51;26.44;97875.47;8381031;28;20296;-59
2022/04/13 10:39:41;;;;;;;6.60;3.90;;;;;;;22.82;26.14;97876.84;8380941;28;20235;-59
2022/04/13 10:43:48;;;;;;;6.07;3.80;;;;;;;22.76;25.87;97874.78;8380639;28;20237;-59
2022/04/13 10:47:56;;;;;;;7.57;3.50;;;;;;;23.12;25.75;97871.41;8379510;28;20234;-59
2022/04/13 10:52:05;;;;;;;10.37;3.67;;;;;;;23.52;26.34;97864.84;8380454;28;20263;-59
2022/04/13 10:56:09;;;;;;;8.87;3.53;;;;;;;23.35;25.08;97863.88;8380681;28;20243;-59
2022/04/13 11:00:14;;;;;;;11.97;3.63;;;;;;;23.25;25.47;97860.47;8379317;28;20315;-60
2022/04/13 11:04:17;;;;;;;10.30;3.10;;;;;;;23.66;25.54;97858.19;8380351;28;20234;-59
2022/04/13 11:08:25;;;;;;;7.20;2.93;;;;;;;23.77;25.33;97850.00;8380397;28;20241;-59
2022/04/13 11:12:31;;;;;;;4.57;2.90;;;;;;;23.54;24.98;97855.78;8380132;28;20239;-59
2022/04/13 11:16:34;;;;;;;6.47;3.27;;;;;;;23.66;25.43;97851.06;8380329;28;20231;-59
2022/04/13 11:20:37;;;;;;;6.23;3.33;;;;;;;24.05;25.21;97860.47;8380192;28;20434;-59
2022/04/13 11:24:43;;;;;;;6.57;3.20;;;;;;;24.25;24.64;97853.97;8380105;28;20241;-59
2022/04/13 11:28:46;;;;;;;8.67;3.77;;;;;;;24.15;24.95;97856.72;8380211;28;20232;-59
2022/04/13 11:32:50;;;;;;;5.73;2.70;;;;;;;24.78;24.75;97855.53;8380048;28;20254;-59
2022/04/13 11:36:53;;;;;;;6.73;3.63;;;;;;;24.48;24.80;97858.72;8380138;28;20246;-59
2022/04/13 11:41:08;;;;;;;6.20;3.17;;;;;;;24.34;25.54;97858.31;8379790;28;20294;-59
2022/04/13 11:45:12;;;;;;;8.20;3.50;;;;;;;24.35;24.97;97856.50;8377497;28;20520;-60
2022/04/13 11:49:15;;;;;;;7.77;2.93;;;;;;;24.44;25.10;97860.84;8346507;28;20511;-59
2022/04/13 11:53:20;;;;;;;5.93;2.70;;;;;;;24.67;24.56;97858.47;8353077;28;20235;-59
2022/04/13 11:57:51;;;;;;;6.70;3.10;;;;;;;24.23;24.68;97860.41;8379073;28;20550;-59
2022/04/13 12:01:55;;;;;;;5.20;2.80;;;;;;;24.26;24.61;97853.00;8379458;28;20429;-61
2022/04/13 12:05:59;;;;;;;5.63;3.00;;;;;;;24.83;25.02;97854.22;8379384;28;20406;-59
2022/04/13 12:10:02;;;;;;;5.83;2.67;;;;;;;25.36;24.23;97845.94;8379153;28;20241;-59
2022/04/13 12:14:06;;;;;;;4.23;2.73;;;;;;;25.26;23.87;97839.13;8384690;28;20236;-59
2022/04/13 12:18:10;;;;;;;6.03;2.60;;;;;;;24.97;24.40;97845.66;8384894;28;20418;-60
2022/04/13 12:22:14;;;;;;;4.97;2.63;;;;;;;25.35;23.79;97841.59;8385609;28;20239;-59
2022/04/13 12:26:17;;;;;;;5.27;2.60;;;;;;;25.16;24.07;97834.75;8385295;28;20233;-60
2022/04/13 12:30:22;;;;;;;3.80;2.80;;;;;;;25.41;23.78;97834.00;8385006;28;20246;-59
2022/04/13 12:34:26;;;;;;;6.73;2.80;;;;;;;25.33;23.23;97832.16;8385191;28;20232;-59
2022/04/13 12:38:31;;;;;;;4.30;2.40;;;;;;;25.36;23.61;97839.81;8385157;28;20553;-60
2022/04/13 12:42:34;;;;;;;3.83;2.13;;;;;;;25.68;24.02;97831.00;8384807;28;20237;-59
2022/04/13 12:46:39;;;;;;;2.80;1.90;;;;;;;25.78;22.82;97830.84;8384491;28;20227;-59
2022/04/13 12:50:55;;;;;;;4.93;2.30;;;;;;;25.42;22.23;97827.69;8370588;28;20240;-61
2022/04/13 12:55:02;;;;;;;8.60;3.20;;;;;;;25.32;21.62;97827.84;8346843;28;20241;-60
2022/04/13 12:59:06;;;;;;;4.40;2.27;;;;;;;25.50;20.85;97827.69;8365960;28;20227;-59
2022/04/13 13:03:10;;;;;;;5.70;2.00;;;;;;;25.15;21.48;97835.78;8369359;28;20233;-63
2022/04/13 13:07:13;;;;;;;7.60;2.00;;;;;;;25.25;21.43;97822.41;8351308;28;20260;-59
2022/04/13 13:11:16;;;;;;;5.67;2.13;;;;;;;25.20;20.83;97829.16;8350974;28;20241;-59
2022/04/13 13:15:35;;;;;;;4.83;1.87;;;;;;;25.30;21.07;97827.19;8360266;28;20556;-59
2022/04/13 13:19:40;;;;;;;3.87;2.00;;;;;;;25.56;20.72;97824.38;8367099;28;20234;-60
2022/04/13 13:23:49;;;;;;;6.67;2.50;;;;;;;25.27;19.79;97816.94;8361420;28;20281;-60
2022/04/13 13:27:54;;;;;;;4.33;2.40;;;;;;;25.00;21.71;97808.28;8358386;28;20228;-59
2022/04/13 13:31:57;;;;;;;5.73;2.30;;;;;;;25.47;21.40;97818.25;8345129;28;20258;-60
2022/04/13 13:36:15;;;;;;;6.40;2.00;;;;;;;25.20;19.98;97807.94;8317466;28;20236;-60
2022/04/13 13:40:33;;;;;;;5.37;2.40;;;;;;;24.86;21.93;97811.53;8349636;28;20634;-59
2022/04/13 13:44:36;;;;;;;7.07;2.27;;;;;;;24.63;22.15;97812.13;8350030;28;20285;-59
2022/04/13 13:48:39;;;;;;;5.03;2.10;;;;;;;24.92;22.05;97801.13;8349673;28;20232;-60
2022/04/13 13:52:43;;;;;;;4.67;2.20;;;;;;;24.95;22.14;97805.28;8348536;28;20236;-58
2022/04/13 13:56:46;;;;;;;8.73;2.40;;;;;;;24.85;22.07;97801.94;8348516;28;20233;-58
2022/04/13 14:00:50;;;;;;;5.50;2.20;;;;;;;24.90;22.73;97802.28;8358234;28;20426;-58
2022/04/13 14:04:53;;;;;;;3.47;1.70;;;;;;;24.61;21.36;97800.06;8356190;28;20248;-58
2022/04/13 14:08:58;;;;;;;5.47;2.33;;;;;;;24.29;21.20;97799.72;8382193;28;20421;-58
2022/04/13 14:13:01;;;;;;;4.30;1.90;;;;;;;24.46;20.72;97805.09;8382357;28;20241;-58
2022/04/13 14:17:05;;;;;;;4.67;1.60;;;;;;;24.70;21.66;97796.44;8382340;28;20239;-57
2022/04/13 14:21:08;;;;;;;3.23;1.70;;;;;;;24.93;22.33;97800.13;8381873;28;20250;-57
2022/04/13 14:25:13;;;;;;;3.70;1.90;;;;;;;24.85;21.48;97802.78;8381253;28;20227;-58
2022/04/13 14:29:19;;;;;;;5.00;2.07;;;;;;;24.85;22.30;97799.31;8382071;28;20235;-58
2022/04/13 14:33:22;;;;;;;4.00;1.70;;;;;;;24.71;21.98;97801.59;8381391;28;20243;-58
2022/04/13 14:37:25;;;;;;;3.90;1.90;;;;;;;24.91;22.41;97793.34;8381275;28;20291;-58
2022/04/13 14:41:30;;;;;;;4.73;2.07;;;;;;;24.47;20.56;97796.19;8381455;28;20236;-58
2022/04/13 14:45:33;;;;;;;4.70;1.60;;;;;;;24.64;20.02;97797.09;8381381;28;20220;-58
2022/04/13 14:49:37;;;;;;;5.13;1.60;;;;;;;24.71;21.38;97800.75;8381000;28;20232;-58
2022/04/13 14:53:40;;;;;;;3.93;1.70;;;;;;;24.70;20.72;97805.22;8380694;28;20233;-58
2022/04/13 14:57:45;;;;;;;8.23;1.93;;;;;;;24.19;19.92;97801.69;8378283;28;20229;-58
2022/04/13 15:01:48;;;;;;;5.37;2.10;;;;;;;24.16;21.89;97794.91;8347694;28;20240;-58
2022/04/13 15:05:51;;;;;;;5.20;2.03;;;;;;;24.20;22.55;97801.53;8347175;28;20248;-57
2022/04/13 15:09:54;;;;;;;4.23;1.87;;;;;;;24.28;22.27;97792.81;8347044;28;20235;-58
2022/04/13 15:13:58;;;;;;;3.83;2.00;;;;;;;24.39;23.86;97795.16;8347371;28;20235;-60
2022/04/13 15:18:01;;;;;;;6.20;1.80;;;;;;;24.34;24.01;97799.28;8347347;28;20233;-58
2022/04/13 15:22:04;;;;;;;3.93;1.87;;;;;;;24.45;23.88;97792.88;8347055;28;20565;-58
2022/04/13 15:26:07;;;;;;;2.77;2.00;;;;;;;24.29;23.50;97793.63;8347078;28;20232;-58
2022/04/13 15:30:14;;;;;;;4.33;2.10;;;;;;;23.99;22.82;97791.34;8379629;28;20231;-59
2022/04/13 15:34:17;;;;;;;5.50;2.13;;;;;;;24.06;23.77;97793.34;8380038;28;20330;-58
2022/04/13 15:38:20;;;;;;;5.03;2.00;;;;;;;23.84;23.60;97792.06;8379648;28;20241;-58
2022/04/13 15:42:23;;;;;;;4.47;2.03;;;;;;;23.87;24.62;97792.59;8377716;28;20232;-58
2022/04/13 15:46:27;;;;;;;4.23;2.07;;;;;;;24.10;24.57;97799.97;8381088;28;20407;-57
2022/04/13 15:50:30;;;;;;;4.73;1.87;;;;;;;23.86;24.42;97792.75;8386654;28;20238;-58
2022/04/13 15:54:33;;;;;;;3.13;1.70;;;;;;;23.59;21.87;97792.72;8386333;28;20243;-57
2022/04/13 15:58:37;;;;;;;4.63;1.80;;;;;;;23.43;21.90;97792.59;8386448;28;20233;-57
2022/04/13 16:02:46;;;;;;;6.07;2.47;;;;;;;23.56;22.33;97793.03;8386290;28;20264;-58
2022/04/13 16:06:49;;;;;;;4.97;2.07;;;;;;;23.47;23.11;97799.22;8386209;28;20234;-57
2022/04/13 16:10:53;;;;;;;7.00;2.60;;;;;;;23.37;24.02;97791.41;8385653;28;20236;-58
2022/04/13 16:14:55;;;;;;;6.33;2.50;;;;;;;23.28;24.97;97794.94;8360221;28;20228;-58
2022/04/13 16:19:00;;;;;;;6.40;2.20;;;;;;;23.22;25.15;97795.56;8351673;28;20227;-58
2022/04/13 16:23:04;;;;;;;4.97;2.37;;;;;;;23.52;25.08;97788.22;8329523;28;20237;-58
2022/04/13 16:27:07;;;;;;;3.60;1.73;;;;;;;23.11;25.41;97785.22;8357026;28;20231;-58
2022/04/13 16:31:10;;;;;;;5.13;2.50;;;;;;;23.15;25.72;97794.50;8365765;28;20501;-58
2022/04/13 16:35:16;;;;;;;6.57;2.40;;;;;;;23.18;25.51;97789.75;8383612;28;20246;-58
2022/04/13 16:39:19;;;;;;;6.67;2.10;;;;;;;22.95;26.01;97796.44;8376068;28;20254;-59
2022/04/13 16:43:22;;;;;;;3.67;2.20;;;;;;;22.83;26.37;97801.94;8347068;28;20224;-59
2022/04/13 16:47:29;;;;;;;6.87;2.57;;;;;;;22.82;26.83;97791.53;8348754;28;20238;-59
2022/04/13 16:51:34;;;;;;;5.60;2.33;;;;;;;22.80;27.28;97794.31;8355245;28;20531;-59
2022/04/13 16:55:37;;;;;;;7.90;2.37;;;;;;;22.64;26.99;97796.81;8349526;28;20253;-61
2022/04/13 16:59:39;;;;;;;11.87;2.80;;;;;;;22.68;26.92;97802.63;8350020;28;20234;-61
2022/04/13 17:03:43;;;;;;;5.60;2.20;;;;;;;22.60;27.22;97806.00;8363137;28;20227;-61
2022/04/13 17:07:48;;;;;;;6.87;2.20;;;;;;;22.37;27.71;97795.84;8352050;28;20239;-61
2022/04/13 17:11:51;;;;;;;4.40;2.20;;;;;;;22.48;27.40;97809.81;8361929;28;20228;-60
2022/04/13 17:15:54;;;;;;;5.93;2.30;;;;;;;22.49;27.34;97806.19;8364442;28;20230;-61
2022/04/13 17:19:57;;;;;;;4.17;1.80;;;;;;;22.42;27.68;97804.13;8370203;28;20261;-61
2022/04/13 17:24:02;;;;;;;3.63;2.00;;;;;;;22.40;28.09;97799.97;8359356;28;20228;-60
2022/04/13 17:28:05;;;;;;;4.57;2.10;;;;;;;22.19;28.65;97810.75;8347396;28;20424;-61
2022/04/13 17:32:08;;;;;;;7.47;2.37;;;;;;;22.15;29.13;97807.56;8349209;28;20237;-61
2022/04/13 17:36:12;;;;;;;3.70;2.50;;;;;;;22.16;29.60;97808.38;8364311;28;20229;-61
2022/04/13 17:40:16;;;;;;;8.40;3.90;;;;;;;22.08;29.89;97814.38;8379584;28;20235;-61
2022/04/13 17:44:19;;;;;;;5.43;2.70;;;;;;;22.00;30.06;97814.28;8376155;28;20235;-61
2022/04/13 17:48:23;;;;;;;7.20;2.60;;;;;;;21.92;30.68;97822.06;8379440;28;20629;-61
2022/04/13 17:52:26;;;;;;;6.47;2.80;;;;;;;21.79;30.91;97817.94;8378989;28;20234;-61
2022/04/13 17:56:31;;;;;;;5.27;2.80;;;;;;;21.79;30.92;97822.38;8376074;28;20252;-61
2022/04/13 18:00:35;;;;;;;4.23;2.60;;;;;;;21.65;31.29;97827.13;8362173;28;20239;-61
2022/04/13 18:04:38;;;;;;;6.30;2.77;;;;;;;21.65;31.79;97827.13;8360961;28;20240;-60
2022/04/13 18:08:41;;;;;;;7.70;3.13;;;;;;;21.54;32.31;97827.28;8359080;28;20432;-60
2022/04/13 18:12:46;;;;;;;11.00;8.23;;;;;;;21.45;32.31;97826.31;8336377;28;20420;-61
2022/04/13 18:16:48;;;;;;;8.43;4.60;;;;;;;21.36;32.95;97831.56;8332300;28;20226;-60
2022/04/13 18:20:52;;;;;;;6.43;3.00;;;;;;;21.25;33.67;97841.25;8332091;28;20235;-60
2022/04/13 18:24:54;;;;;;;3.83;2.70;;;;;;;21.16;34.20;97849.16;8332279;28;20235;-62
2022/04/13 18:29:02;;;;;;;8.87;6.53;;;;;;;20.98;34.73;97849.84;8329994;28;20234;-60
2022/04/13 18:33:05;;;;;;;11.80;8.47;;;;;;;20.96;34.98;97857.03;8330715;28;20238;-60
2022/04/13 18:37:08;;;;;;;27.20;22.63;;;;;;;20.88;35.62;97852.44;8331737;28;20420;-60
2022/04/13 18:41:15;;;;;;;20.93;12.83;;;;;;;20.87;35.71;97855.22;8353294;28;20231;-60
2022/04/13 18:45:20;;;;;;;15.47;9.10;;;;;;;20.75;35.65;97856.28;8347895;28;20235;-61
2022/04/13 18:49:23;;;;;;;11.23;7.73;;;;;;;20.66;35.77;97855.31;8330849;28;20537;-60
2022/04/13 18:53:26;;;;;;;15.93;11.97;;;;;;;20.54;36.31;97861.59;8329979;28;20240;-60
2022/04/13 18:57:29;;;;;;;12.77;9.40;;;;;;;20.42;36.43;97855.59;8330621;28;20245;-60
2022/04/13 19:01:35;;;;;;;12.80;7.70;;;;;;;20.36;37.37;97862.22;8332079;28;20413;-60
2022/04/13 19:05:39;;;;;;;10.57;6.90;;;;;;;20.24;37.73;97864.13;8329889;28;20254;-60